Time;durP1;ratioP1;P1;durP2;ratioP2;P2;SDS_P1;SDS_P2;PMS_P1;PMS_P2;Temp;Humidity;BMP_temperature;BMP_pressure;BME280_temperature;BME280_humidity;BME280_pressure;Samples;Min_cycle;Max_cycle;Signal;HPM_P1;HPM_P2
2022/03/17 00:01:46;;;;;;;45.03;18.30;;;;;;;0.68;100.00;101942.13;5035349;28;20486;-86
2022/03/17 00:04:12;;;;;;;59.92;23.50;;;;;;;0.81;100.00;101938.72;5050894;28;20436;-85
2022/03/17 00:06:37;;;;;;;49.15;19.75;;;;;;;0.94;100.00;101946.00;5048988;28;20086;-82
2022/03/17 00:09:04;;;;;;;36.70;15.52;;;;;;;0.78;100.00;101935.41;5034731;28;20035;-83
2022/03/17 00:11:30;;;;;;;62.85;23.42;;;;;;;0.64;100.00;101939.66;5064098;28;20554;-83
2022/03/17 00:13:56;;;;;;;26.00;11.43;;;;;;;0.63;100.00;101940.56;5067914;28;20040;-83
2022/03/17 00:16:22;;;;;;;42.03;18.27;;;;;;;0.37;100.00;101938.47;5048741;28;20474;-81
2022/03/17 00:18:47;;;;;;;37.20;14.80;;;;;;;0.18;100.00;101946.50;5066726;28;20029;-82
2022/03/17 00:21:13;;;;;;;24.90;11.27;;;;;;;-0.14;100.00;101914.63;5038162;28;20487;-82
2022/03/17 00:23:38;;;;;;;16.08;7.78;;;;;;;-0.07;100.00;101936.34;5029880;28;20029;-82
2022/03/17 00:26:04;;;;;;;16.20;8.52;;;;;;;-0.10;100.00;101947.94;5030752;28;20036;-82
2022/03/17 00:28:30;;;;;;;16.35;7.88;;;;;;;-0.17;100.00;101935.94;5051300;28;20059;-84
2022/03/17 00:30:56;;;;;;;10.18;5.28;;;;;;;-0.17;100.00;101946.53;5029217;28;20040;-82
2022/03/17 00:33:22;;;;;;;11.07;4.68;;;;;;;-0.19;100.00;101943.09;5050674;28;20434;-83
2022/03/17 00:35:47;;;;;;;3.05;2.35;;;;;;;-0.45;100.00;101910.91;5051618;28;20041;-85
2022/03/17 00:38:15;;;;;;;7.53;3.85;;;;;;;-0.30;100.00;101940.16;5032917;28;20044;-84
2022/03/17 00:40:42;;;;;;;7.32;3.80;;;;;;;-0.35;100.00;101936.88;5064883;28;20048;-82
2022/03/17 00:43:11;;;;;;;11.48;4.90;;;;;;;-0.60;100.00;101911.69;5066826;28;20031;-83
2022/03/17 00:45:41;;;;;;;8.57;5.25;;;;;;;-0.64;100.00;101931.22;5067699;28;20025;-82
2022/03/17 00:48:07;;;;;;;7.85;4.43;;;;;;;-0.81;100.00;101932.06;5048237;28;20093;-85
2022/03/17 00:50:33;;;;;;;6.43;3.67;;;;;;;-0.80;100.00;101927.63;5064094;28;20437;-84
2022/03/17 00:53:00;;;;;;;7.97;4.60;;;;;;;-0.49;100.00;101932.28;5048332;28;20123;-84
2022/03/17 00:55:26;;;;;;;7.20;4.18;;;;;;;-0.17;100.00;101914.81;5033891;28;20044;-83
2022/03/17 00:57:52;;;;;;;5.22;2.25;;;;;;;0.38;100.00;101922.50;5047147;28;20033;-84
2022/03/17 01:00:20;;;;;;;3.78;2.30;;;;;;;0.77;100.00;101908.06;5050180;28;20379;-84
2022/03/17 01:02:52;;;;;;;6.95;3.58;;;;;;;1.06;100.00;101914.41;5067939;28;20044;-83
2022/03/17 01:05:17;;;;;;;7.55;2.95;;;;;;;1.09;100.00;101903.63;5064466;28;20066;-85
2022/03/17 01:07:44;;;;;;;3.20;2.30;;;;;;;1.29;100.00;101920.19;5050196;28;20382;-82
2022/03/17 01:10:12;;;;;;;6.72;3.30;;;;;;;1.41;100.00;101924.78;5048816;28;20043;-83
2022/03/17 01:12:38;;;;;;;4.70;2.03;;;;;;;1.49;100.00;101919.06;5060962;28;20447;-83
2022/03/17 01:15:04;;;;;;;4.70;2.13;;;;;;;1.50;100.00;101907.50;5062695;28;20044;-84
2022/03/17 01:17:30;;;;;;;7.80;2.20;;;;;;;1.46;100.00;101909.47;5045434;28;20036;-85
2022/03/17 01:19:56;;;;;;;6.28;2.38;;;;;;;1.34;100.00;101880.19;5066786;28;20540;-84
2022/03/17 01:22:21;;;;;;;2.95;1.70;;;;;;;1.31;100.00;101886.50;5063602;28;20381;-84
2022/03/17 01:24:49;;;;;;;8.32;2.30;;;;;;;1.21;100.00;101886.16;5063225;28;20474;-87
2022/03/17 01:27:15;;;;;;;8.40;2.75;;;;;;;1.17;100.00;101899.69;5047574;28;20115;-82
2022/03/17 01:29:43;;;;;;;3.75;1.38;;;;;;;1.27;100.00;101898.22;5062919;28;20071;-84
2022/03/17 01:32:09;;;;;;;2.75;1.75;;;;;;;1.26;100.00;101893.88;5064648;28;20473;-85
2022/03/17 01:34:38;;;;;;;6.10;2.28;;;;;;;1.37;100.00;101885.28;5049155;28;20033;-82
2022/03/17 01:37:03;;;;;;;6.55;1.98;;;;;;;1.59;100.00;101904.31;5030350;28;20037;-84
2022/03/17 01:39:29;;;;;;;8.50;1.88;;;;;;;1.57;100.00;101892.94;5050077;28;20042;-84
2022/03/17 01:41:58;;;;;;;6.93;2.50;;;;;;;1.59;100.00;101880.47;5033170;28;20028;-83
2022/03/17 01:44:25;;;;;;;3.80;1.77;;;;;;;1.65;100.00;101889.84;5050206;28;20478;-83
2022/03/17 01:49:39;;;;;;;4.28;1.88;;;;;;;1.66;100.00;101873.84;5050739;28;20044;-84
2022/03/17 01:52:05;;;;;;;7.95;2.75;;;;;;;1.82;100.00;101884.38;5032793;28;20032;-86
2022/03/17 01:54:32;;;;;;;7.05;2.47;;;;;;;1.85;100.00;101875.41;5031199;28;20474;-86
2022/03/17 01:57:00;;;;;;;5.80;1.38;;;;;;;1.78;100.00;101864.31;5065669;28;20063;-83
2022/03/17 01:59:27;;;;;;;13.52;2.78;;;;;;;1.82;100.00;101870.28;5045733;28;20040;-82
2022/03/17 02:01:56;;;;;;;7.50;2.47;;;;;;;1.68;100.00;101871.97;5056987;28;20029;-84
2022/03/17 02:04:22;;;;;;;2.42;1.42;;;;;;;1.71;100.00;101876.22;5030818;28;20029;-84
2022/03/17 02:06:48;;;;;;;4.95;1.95;;;;;;;1.56;100.00;101848.81;5034915;28;20504;-83
2022/03/17 02:09:14;;;;;;;2.65;1.67;;;;;;;1.63;100.00;101851.97;5064312;28;20028;-84
2022/03/17 02:14:24;;;;;;;6.40;3.08;;;;;;;1.83;100.00;101845.47;5052116;28;20036;-84
2022/03/17 02:16:51;;;;;;;6.53;2.58;;;;;;;1.92;100.00;101856.38;5065918;28;20104;-82
2022/03/17 02:19:17;;;;;;;8.90;2.83;;;;;;;2.01;100.00;101851.44;5032095;28;20121;-85
2022/03/17 02:21:44;;;;;;;8.40;2.42;;;;;;;2.01;100.00;101859.41;5048567;28;20186;-84
2022/03/17 02:26:57;;;;;;;6.95;2.03;;;;;;;2.18;100.00;101857.44;5055656;28;20040;-82
2022/03/17 02:29:22;;;;;;;13.40;3.88;;;;;;;2.14;100.00;101847.09;5079822;28;20033;-82
2022/03/17 02:31:48;;;;;;;10.88;3.08;;;;;;;2.12;100.00;101825.13;5035584;28;20032;-84
2022/03/17 02:34:18;;;;;;;4.57;1.30;;;;;;;2.31;100.00;101838.97;5072043;28;20063;-86
2022/03/17 02:36:48;;;;;;;3.20;1.50;;;;;;;2.41;100.00;101820.66;5037713;28;20469;-86
2022/03/17 02:39:18;;;;;;;5.53;1.90;;;;;;;2.53;100.00;101821.66;5069254;28;20164;-85
2022/03/17 02:41:44;;;;;;;1.15;1.00;;;;;;;2.71;100.00;101833.78;5067803;28;20047;-88
2022/03/17 02:44:10;;;;;;;1.80;0.98;;;;;;;2.77;100.00;101825.41;5033541;28;20032;-83
2022/03/17 02:46:36;;;;;;;2.22;1.20;;;;;;;2.93;100.00;101825.25;5068422;28;20046;-84
2022/03/17 02:49:02;;;;;;;4.43;1.75;;;;;;;3.00;100.00;101818.59;5048538;28;20032;-84
2022/03/17 02:51:28;;;;;;;1.02;0.88;;;;;;;2.94;100.00;101792.44;5070413;28;20043;-86
2022/03/17 02:54:02;;;;;;;1.30;1.20;;;;;;;3.08;100.00;101805.66;5033370;28;20032;-84
2022/03/17 02:56:30;;;;;;;3.97;1.33;;;;;;;3.14;100.00;101806.22;5068842;28;20040;-85
2022/03/17 02:58:55;;;;;;;2.58;1.23;;;;;;;3.03;100.00;101786.50;5063583;28;20039;-85
2022/03/17 03:01:21;;;;;;;2.35;1.30;;;;;;;3.05;100.00;101776.63;5064815;28;20545;-84
2022/03/17 03:03:47;;;;;;;3.15;1.30;;;;;;;3.03;100.00;101788.31;5052551;28;20089;-86
2022/03/17 03:06:14;;;;;;;4.28;1.00;;;;;;;3.08;100.00;101792.38;5051210;28;20481;-88
2022/03/17 03:08:39;;;;;;;3.33;1.55;;;;;;;3.04;100.00;101780.25;5066210;28;20033;-85
2022/03/17 03:11:05;;;;;;;2.15;1.05;;;;;;;2.93;100.00;101758.84;5069490;28;20371;-85
2022/03/17 03:13:31;;;;;;;2.03;1.10;;;;;;;3.16;100.00;101785.69;5068157;28;20427;-85
2022/03/17 03:15:56;;;;;;;4.30;1.17;;;;;;;3.15;100.00;101754.75;5066708;28;20028;-84
2022/03/17 03:18:22;;;;;;;2.03;0.80;;;;;;;3.25;100.00;101761.16;5053126;28;20454;-85
2022/03/17 03:20:47;;;;;;;3.13;0.95;;;;;;;3.25;100.00;101755.84;5055811;28;20053;-84
2022/03/17 03:23:13;;;;;;;3.90;1.27;;;;;;;3.37;100.00;101770.97;5065568;28;20044;-84
2022/03/17 03:25:39;;;;;;;1.33;1.08;;;;;;;3.41;100.00;101748.50;5035028;28;20033;-84
2022/03/17 03:28:09;;;;;;;1.88;0.95;;;;;;;3.48;100.00;101746.31;5034807;28;20394;-84
2022/03/17 03:30:36;;;;;;;2.38;0.75;;;;;;;3.66;100.00;101752.16;5053242;28;20032;-85
2022/03/17 03:33:03;;;;;;;3.65;1.05;;;;;;;3.77;100.00;101743.44;5067160;28;20028;-84
2022/03/17 03:38:13;;;;;;;1.17;0.82;;;;;;;3.96;100.00;101749.16;5066845;28;20036;-86
2022/03/17 03:40:38;;;;;;;0.85;0.75;;;;;;;3.93;100.00;101717.44;5052331;28;20044;-85
2022/03/17 03:43:04;;;;;;;1.48;0.95;;;;;;;4.15;100.00;101727.38;5035420;28;20218;-82
2022/03/17 03:45:30;;;;;;;0.50;0.50;;;;;;;4.12;100.00;101708.97;5068604;28;20032;-84
2022/03/17 03:47:55;;;;;;;7.93;1.42;;;;;;;4.32;100.00;101747.50;5049871;28;20402;-85
2022/03/17 03:50:21;;;;;;;3.28;0.82;;;;;;;4.29;100.00;101735.25;5053742;28;20040;-85
2022/03/17 03:52:47;;;;;;;1.45;1.02;;;;;;;4.20;100.00;101725.25;5053110;28;20041;-89
2022/03/17 03:55:12;;;;;;;2.60;1.00;;;;;;;4.33;100.00;101739.38;5032944;28;20394;-85
2022/03/17 03:57:38;;;;;;;2.70;1.00;;;;;;;4.33;100.00;101733.19;5068004;28;20028;-85
2022/03/17 04:00:20;;;;;;;3.20;1.15;;;;;;;4.43;100.00;101744.03;5034399;28;20123;-84
2022/03/17 04:02:46;;;;;;;0.98;0.80;;;;;;;4.54;100.00;101750.28;5066701;28;20063;-83
2022/03/17 04:05:12;;;;;;;1.73;0.98;;;;;;;4.48;100.00;101723.25;5064036;28;20040;-86
2022/03/17 04:07:37;;;;;;;1.42;0.68;;;;;;;4.56;100.00;101742.19;5045427;28;20036;-88
2022/03/17 04:10:05;;;;;;;2.55;1.15;;;;;;;4.52;100.00;101740.69;5052574;28;20032;-85
2022/03/17 04:12:31;;;;;;;1.48;0.80;;;;;;;4.47;100.00;101726.88;5065856;28;20063;-84
2022/03/17 04:14:59;;;;;;;2.90;0.90;;;;;;;4.47;100.00;101742.84;5030518;28;20042;-88
2022/03/17 04:17:25;;;;;;;0.63;0.63;;;;;;;4.51;100.00;101734.53;5069100;28;20032;-84
2022/03/17 04:19:50;;;;;;;1.58;0.70;;;;;;;4.56;100.00;101743.03;5062249;28;20032;-85
2022/03/17 04:22:16;;;;;;;1.00;0.90;;;;;;;4.53;100.00;101740.59;5033623;28;20048;-88
2022/03/17 04:24:42;;;;;;;4.18;1.20;;;;;;;4.47;100.00;101732.19;5050246;28;20036;-86
2022/03/17 04:27:10;;;;;;;1.92;0.77;;;;;;;4.36;100.00;101717.84;5029104;28;20089;-85
2022/03/17 04:29:35;;;;;;;4.10;1.00;;;;;;;4.45;100.00;101734.97;5059632;28;20035;-84
2022/03/17 04:32:01;;;;;;;2.22;1.05;;;;;;;4.49;100.00;101752.41;5068820;28;20036;-84
2022/03/17 04:34:27;;;;;;;4.97;1.05;;;;;;;4.45;100.00;101740.31;5034697;28;20051;-85
2022/03/17 04:36:52;;;;;;;2.45;0.88;;;;;;;4.38;100.00;101734.56;5051095;28;20074;-87
2022/03/17 04:39:18;;;;;;;3.15;1.35;;;;;;;4.35;100.00;101728.63;5034703;28;20437;-86
2022/03/17 04:41:44;;;;;;;1.73;0.93;;;;;;;4.44;100.00;101738.59;5052668;28;20028;-84
2022/03/17 04:44:09;;;;;;;2.72;1.15;;;;;;;4.40;100.00;101715.81;5049365;28;20079;-84
2022/03/17 04:46:36;;;;;;;1.17;0.90;;;;;;;4.51;100.00;101733.69;5046902;28;20032;-85
2022/03/17 04:49:02;;;;;;;2.95;1.20;;;;;;;4.50;100.00;101715.97;5033765;28;20101;-83
2022/03/17 04:51:28;;;;;;;1.48;1.10;;;;;;;4.45;100.00;101712.84;5034033;28;20036;-83
2022/03/17 04:53:54;;;;;;;1.23;0.82;;;;;;;4.48;100.00;101704.63;5047665;28;20040;-89
2022/03/17 04:56:20;;;;;;;1.42;1.10;;;;;;;4.67;100.00;101722.75;5060597;28;20028;-85
2022/03/17 04:58:46;;;;;;;3.88;1.00;;;;;;;4.60;100.00;101701.91;5046093;28;20033;-86
2022/03/17 05:01:12;;;;;;;3.13;1.05;;;;;;;4.56;100.00;101688.91;5030728;28;20033;-84
2022/03/17 05:03:38;;;;;;;7.25;0.98;;;;;;;4.75;100.00;101713.22;5050647;28;20124;-83
2022/03/17 05:06:05;;;;;;;0.70;0.70;;;;;;;4.87;100.00;101723.91;5031228;28;20476;-84
2022/03/17 05:08:35;;;;;;;4.43;0.98;;;;;;;4.88;100.00;101720.28;5046919;28;20045;-86
2022/03/17 05:11:01;;;;;;;1.05;0.95;;;;;;;4.89;100.00;101721.97;5050578;28;20385;-87
2022/03/17 05:13:27;;;;;;;5.80;1.10;;;;;;;4.91;100.00;101728.91;5047632;28;20040;-86
2022/03/17 05:15:52;;;;;;;2.35;0.85;;;;;;;4.91;100.00;101714.72;5066095;28;20033;-84
2022/03/17 05:18:19;;;;;;;2.65;1.20;;;;;;;4.92;100.00;101725.28;5050785;28;20174;-84
2022/03/17 05:20:44;;;;;;;6.25;1.00;;;;;;;4.88;100.00;101712.31;5066491;28;20044;-84
2022/03/17 05:23:13;;;;;;;5.63;0.90;;;;;;;4.80;100.00;101716.38;5034486;28;20670;-85
2022/03/17 05:25:42;;;;;;;1.55;0.82;;;;;;;4.73;100.00;101690.31;5063712;28;20020;-85
2022/03/17 05:28:08;;;;;;;0.90;0.90;;;;;;;4.85;100.00;101716.88;5058936;28;20032;-84
2022/03/17 05:30:35;;;;;;;3.40;1.10;;;;;;;4.94;100.00;101725.16;5049118;28;20051;-85
2022/03/17 05:33:01;;;;;;;1.20;1.08;;;;;;;4.95;100.00;101725.06;5067740;28;20103;-83
2022/03/17 05:35:27;;;;;;;3.22;1.00;;;;;;;4.97;100.00;101728.44;5045548;28;20102;-85
2022/03/17 05:37:53;;;;;;;0.98;0.75;;;;;;;4.87;100.00;101719.44;5076853;28;20102;-87
2022/03/17 05:40:19;;;;;;;1.75;0.93;;;;;;;4.93;100.00;101724.31;5064117;28;20150;-84
2022/03/17 05:42:48;;;;;;;1.80;1.00;;;;;;;4.97;100.00;101724.91;5031336;28;20046;-84
2022/03/17 05:45:15;;;;;;;2.20;1.05;;;;;;;4.99;100.00;101731.00;5033716;28;20565;-85
2022/03/17 05:47:43;;;;;;;2.33;0.80;;;;;;;4.93;100.00;101715.47;5062347;28;20119;-85
2022/03/17 05:50:11;;;;;;;6.22;1.70;;;;;;;4.98;100.00;101732.81;5054234;28;20420;-84
2022/03/17 05:52:38;;;;;;;1.92;1.13;;;;;;;4.95;100.00;101727.72;5062487;28;20082;-82
2022/03/17 05:55:05;;;;;;;16.15;1.55;;;;;;;4.98;100.00;101726.63;5052502;28;20042;-81
2022/03/17 05:57:34;;;;;;;2.80;0.75;;;;;;;4.96;100.00;101710.75;5053294;28;20044;-83
2022/03/17 05:59:59;;;;;;;3.60;1.25;;;;;;;5.07;100.00;101723.25;5068175;28;20062;-83
2022/03/17 06:02:27;;;;;;;26.08;1.83;;;;;;;5.01;100.00;101710.41;5034303;28;20074;-81
2022/03/17 06:04:53;;;;;;;0.70;0.70;;;;;;;5.17;100.00;101726.94;5052648;28;20032;-82
2022/03/17 06:07:18;;;;;;;2.25;1.13;;;;;;;5.24;100.00;101727.31;5047578;28;20480;-82
2022/03/17 06:09:44;;;;;;;1.85;1.00;;;;;;;5.29;100.00;101730.47;5068155;28;20310;-82
2022/03/17 06:12:11;;;;;;;1.23;0.80;;;;;;;5.34;100.00;101732.78;5037494;28;20032;-82
2022/03/17 06:14:36;;;;;;;0.90;0.80;;;;;;;5.43;100.00;101742.75;5060559;28;20707;-81
2022/03/17 06:17:04;;;;;;;1.98;0.80;;;;;;;5.50;100.00;101741.28;5063173;28;20024;-81
2022/03/17 06:19:29;;;;;;;2.47;1.10;;;;;;;5.51;100.00;101737.69;5049652;28;20655;-83
2022/03/17 06:21:55;;;;;;;1.88;1.13;;;;;;;5.62;100.00;101748.34;5051561;28;20051;-82
2022/03/17 06:24:21;;;;;;;6.75;4.35;;;;;;;5.59;100.00;101721.06;5034132;28;20048;-81
2022/03/17 06:26:46;;;;;;;2.38;1.13;;;;;;;5.73;100.00;101747.53;5034612;28;20101;-81
2022/03/17 06:29:12;;;;;;;6.88;1.58;;;;;;;5.85;100.00;101737.72;5046833;28;20074;-82
2022/03/17 06:31:38;;;;;;;0.80;0.80;;;;;;;5.89;100.00;101741.81;5030105;28;20051;-83
2022/03/17 06:34:03;;;;;;;1.52;1.00;;;;;;;5.89;100.00;101739.16;5066123;28;20032;-81
2022/03/17 06:36:29;;;;;;;2.95;1.20;;;;;;;5.89;100.00;101756.00;5065062;28;20035;-82
2022/03/17 06:38:55;;;;;;;1.65;0.85;;;;;;;5.87;100.00;101757.94;5035795;28;20028;-82
2022/03/17 06:41:20;;;;;;;1.77;0.75;;;;;;;5.92;100.00;101765.59;5067501;28;20531;-83
2022/03/17 06:43:46;;;;;;;0.55;0.55;;;;;;;5.92;100.00;101761.09;5051455;28;20068;-81
2022/03/17 06:46:12;;;;;;;6.35;1.13;;;;;;;5.99;100.00;101782.88;5064720;28;20044;-81
2022/03/17 06:48:37;;;;;;;2.25;0.90;;;;;;;5.91;100.00;101779.94;5048691;28;20482;-82
2022/03/17 06:51:03;;;;;;;5.63;1.70;;;;;;;5.87;100.00;101775.78;5049402;28;20032;-83
2022/03/17 06:53:28;;;;;;;2.25;1.15;;;;;;;5.85;100.00;101775.94;5050412;28;20033;-83
2022/03/17 06:55:54;;;;;;;4.63;0.95;;;;;;;5.93;100.00;101797.56;5073761;28;20029;-83
2022/03/17 06:58:20;;;;;;;4.47;1.15;;;;;;;5.90;100.00;101795.09;5061948;28;20126;-82
2022/03/17 07:00:45;;;;;;;1.13;0.90;;;;;;;5.76;100.00;101751.75;5033604;28;20036;-82
2022/03/17 07:03:11;;;;;;;4.15;1.02;;;;;;;5.89;100.00;101768.50;5053702;28;20115;-82
2022/03/17 07:05:37;;;;;;;4.18;1.00;;;;;;;5.94;100.00;101780.56;5065433;28;20032;-82
2022/03/17 07:08:02;;;;;;;3.25;1.02;;;;;;;5.78;100.00;101750.69;5035897;28;20470;-80
2022/03/17 07:10:29;;;;;;;2.63;0.85;;;;;;;5.99;100.00;101790.03;5068945;28;20042;-82
2022/03/17 07:12:55;;;;;;;1.27;0.82;;;;;;;6.06;100.00;101784.09;5047239;28;21703;-82
2022/03/17 07:15:21;;;;;;;3.42;1.00;;;;;;;6.08;100.00;101789.31;5046459;28;20041;-82
2022/03/17 07:17:46;;;;;;;3.22;1.13;;;;;;;6.15;100.00;101785.19;5060652;28;20477;-84
2022/03/17 07:20:14;;;;;;;1.30;0.90;;;;;;;6.25;100.00;101778.13;5030961;28;20067;-82
2022/03/17 07:22:40;;;;;;;4.78;1.58;;;;;;;6.33;100.00;101788.22;5031341;28;20044;-81
2022/03/17 07:25:09;;;;;;;8.73;1.40;;;;;;;6.39;100.00;101790.38;5054356;28;20051;-83
2022/03/17 07:27:43;;;;;;;4.10;0.90;;;;;;;6.56;100.00;101800.56;5058895;28;20040;-84
2022/03/17 07:30:19;;;;;;;3.80;1.33;;;;;;;6.79;100.00;101801.34;5059195;28;20561;-84
2022/03/17 07:32:48;;;;;;;1.15;0.80;;;;;;;6.86;100.00;101812.41;5060579;28;20093;-82
2022/03/17 07:35:14;;;;;;;1.67;0.85;;;;;;;6.89;100.00;101806.81;5045102;28;20032;-85
2022/03/17 07:37:41;;;;;;;8.63;1.70;;;;;;;7.05;100.00;101812.56;5060653;28;20020;-82
2022/03/17 07:40:08;;;;;;;3.47;1.23;;;;;;;7.40;100.00;101819.47;5045900;28;20028;-82
2022/03/17 07:42:34;;;;;;;2.13;0.93;;;;;;;7.48;100.00;101806.31;5043525;28;20036;-83
2022/03/17 07:44:59;;;;;;;2.10;1.15;;;;;;;7.69;100.00;101814.34;5059105;28;20024;-82
2022/03/17 07:47:25;;;;;;;8.15;1.63;;;;;;;7.89;100.00;101822.50;5037969;28;20032;-82
2022/03/17 07:49:52;;;;;;;2.15;0.93;;;;;;;8.12;100.00;101810.66;5071983;28;20082;-84
2022/03/17 07:52:18;;;;;;;7.72;1.90;;;;;;;8.45;100.00;101818.56;5047661;28;20025;-83
2022/03/17 07:54:45;;;;;;;4.93;2.75;;;;;;;8.89;100.00;101827.13;5045308;28;20021;-83
2022/03/17 07:57:11;;;;;;;5.57;1.63;;;;;;;9.56;100.00;101820.09;5043839;28;20122;-83
2022/03/17 07:59:37;;;;;;;4.72;1.73;;;;;;;10.38;100.00;101824.84;5046768;28;20498;-84
2022/03/17 08:02:04;;;;;;;7.80;2.95;;;;;;;10.99;97.57;101824.19;5062592;28;20103;-86
2022/03/17 08:04:29;;;;;;;11.63;3.15;;;;;;;11.45;94.57;101835.72;5048443;28;20032;-82
2022/03/17 08:06:57;;;;;;;7.75;2.22;;;;;;;11.82;92.69;101825.75;5071268;28;20097;-83
2022/03/17 08:09:24;;;;;;;7.85;1.80;;;;;;;12.24;90.50;101833.94;5046012;28;20040;-82
2022/03/17 08:11:50;;;;;;;5.90;1.60;;;;;;;12.52;88.63;101831.91;5050036;28;20055;-83
2022/03/17 08:14:16;;;;;;;2.65;1.38;;;;;;;12.87;87.11;101831.84;5053076;28;20378;-84
2022/03/17 08:16:43;;;;;;;5.95;2.47;;;;;;;13.07;85.25;101826.97;5063657;28;20268;-84
2022/03/17 08:19:31;;;;;;;10.63;2.50;;;;;;;13.44;84.44;101840.06;5048497;28;20029;-85
2022/03/17 08:21:58;;;;;;;5.45;2.00;;;;;;;13.66;83.33;101843.97;5051193;28;20099;-82
2022/03/17 08:24:24;;;;;;;4.50;1.50;;;;;;;13.75;82.18;101831.28;5034347;28;20093;-84
2022/03/17 08:26:49;;;;;;;7.80;3.03;;;;;;;14.08;81.40;101853.72;5052292;28;20429;-86
2022/03/17 08:29:15;;;;;;;10.63;3.58;;;;;;;14.27;80.64;101849.78;5050675;28;20535;-85
2022/03/17 08:31:40;;;;;;;5.80;2.65;;;;;;;14.47;79.88;101859.19;5049038;28;20033;-85
2022/03/17 08:34:06;;;;;;;9.48;3.00;;;;;;;14.67;78.86;101843.38;5036378;28;20039;-85
2022/03/17 08:36:32;;;;;;;8.73;4.30;;;;;;;14.96;78.19;101866.25;5030709;28;20581;-81
2022/03/17 08:38:58;;;;;;;9.68;3.58;;;;;;;15.14;77.36;101874.97;5041243;28;20039;-84
2022/03/17 08:41:25;;;;;;;9.25;3.42;;;;;;;15.33;77.50;101870.94;5036099;28;20055;-85
2022/03/17 08:43:51;;;;;;;4.63;1.90;;;;;;;15.54;76.27;101872.16;5057626;28;20055;-86
2022/03/17 08:49:24;;;;;;;7.63;2.60;;;;;;;16.04;74.89;101884.28;5067987;28;20033;-85
2022/03/17 08:51:56;;;;;;;12.57;3.10;;;;;;;16.16;73.70;101892.81;5064667;28;20036;-83
2022/03/17 08:54:23;;;;;;;12.15;4.13;;;;;;;16.27;73.48;101884.22;5031007;28;20040;-83
2022/03/17 08:56:50;;;;;;;9.55;2.90;;;;;;;16.40;73.30;101876.25;5058766;28;20050;-85
2022/03/17 08:59:18;;;;;;;11.85;3.38;;;;;;;16.64;72.61;101896.84;5047575;28;20150;-84
2022/03/17 09:01:44;;;;;;;11.27;3.63;;;;;;;16.64;72.85;101891.41;5048092;28;20028;-86
2022/03/17 09:04:14;;;;;;;16.33;2.97;;;;;;;16.71;71.78;101900.50;5027451;28;20478;-85
2022/03/17 09:06:43;;;;;;;9.43;3.58;;;;;;;16.96;72.07;101908.38;5049966;28;20162;-87
2022/03/17 09:09:10;;;;;;;12.43;3.33;;;;;;;17.85;69.27;101921.69;5071460;28;20575;-85
2022/03/17 09:11:35;;;;;;;11.55;3.10;;;;;;;16.48;71.60;101929.63;5035403;28;20063;-86
2022/03/17 09:14:01;;;;;;;16.55;3.63;;;;;;;15.77;75.43;101931.81;5055931;28;20067;-84
2022/03/17 09:16:27;;;;;;;10.40;3.05;;;;;;;16.47;72.00;101909.78;5032074;28;20441;-84
2022/03/17 09:18:52;;;;;;;11.18;3.30;;;;;;;17.35;68.38;101924.28;5053078;28;20043;-86
2022/03/17 09:21:18;;;;;;;7.05;1.92;;;;;;;17.84;64.74;101927.34;5064689;28;20131;-85
2022/03/17 09:23:44;;;;;;;9.68;3.13;;;;;;;17.86;64.82;101885.31;5032713;28;20085;-88
2022/03/17 09:26:09;;;;;;;24.52;3.88;;;;;;;17.22;63.02;101936.91;5023395;28;20036;-84
2022/03/17 09:28:35;;;;;;;9.55;2.72;;;;;;;16.27;68.34;101942.06;5032163;28;20039;-90
2022/03/17 09:31:01;;;;;;;14.98;2.97;;;;;;;15.59;70.33;101942.94;5059415;28;20028;-86
2022/03/17 09:33:27;;;;;;;14.23;2.55;;;;;;;14.50;76.48;101947.28;5029458;28;20036;-86
2022/03/17 09:35:54;;;;;;;16.90;2.65;;;;;;;13.92;80.15;101949.22;5051394;28;20371;-87
2022/03/17 09:38:20;;;;;;;24.75;3.72;;;;;;;13.27;76.31;101905.91;5049381;28;20474;-86
2022/03/17 09:40:46;;;;;;;15.57;2.75;;;;;;;12.88;81.80;101966.63;5067325;28;20027;-88
2022/03/17 09:43:18;;;;;;;17.85;2.83;;;;;;;12.46;84.72;101969.25;5065280;28;20040;-86
2022/03/17 09:45:52;;;;;;;19.15;4.00;;;;;;;11.98;86.10;101951.72;5036587;28;20032;-86
2022/03/17 09:48:19;;;;;;;12.63;3.08;;;;;;;11.81;86.94;101958.81;5032913;28;20098;-86
2022/03/17 09:50:46;;;;;;;17.25;3.63;;;;;;;12.07;84.25;101964.28;5034448;28;20127;-87
2022/03/17 09:53:12;;;;;;;8.65;2.38;;;;;;;11.88;84.69;101949.97;5068491;28;20107;-84
2022/03/17 09:55:43;;;;;;;18.13;3.75;;;;;;;12.23;85.16;101975.19;5067611;28;20083;-84
2022/03/17 09:58:11;;;;;;;17.48;3.13;;;;;;;12.63;82.12;101973.78;5062845;28;20031;-87
2022/03/17 10:00:48;;;;;;;16.08;4.05;;;;;;;12.99;79.37;101954.69;5049627;28;20045;-87
2022/03/17 10:03:26;;;;;;;9.32;3.45;;;;;;;12.87;77.46;101962.25;5066473;28;20039;-87
2022/03/17 10:05:54;;;;;;;11.75;3.15;;;;;;;12.83;78.00;101995.97;5029966;28;20037;-87
2022/03/17 10:08:21;;;;;;;21.27;3.50;;;;;;;12.49;79.88;101986.00;5033670;28;20032;-86
2022/03/17 10:10:47;;;;;;;12.20;3.65;;;;;;;12.48;79.27;102005.03;5035663;28;20033;-88
2022/03/17 10:13:19;;;;;;;17.17;3.60;;;;;;;12.48;78.76;101999.63;5050188;28;20041;-87
2022/03/17 10:15:46;;;;;;;9.38;3.42;;;;;;;12.56;78.49;101998.84;5068649;28;20032;-83
2022/03/17 10:18:23;;;;;;;13.48;2.97;;;;;;;12.82;77.39;102007.78;5037913;28;20028;-86
2022/03/17 10:21:10;;;;;;;17.02;3.05;;;;;;;12.98;75.89;102017.81;5067961;28;20021;-84
2022/03/17 10:23:54;;;;;;;13.70;3.40;;;;;;;13.15;75.33;102022.31;5057448;28;20063;-87
2022/03/17 10:26:50;;;;;;;16.75;4.00;;;;;;;14.19;71.86;102014.81;5059184;28;20035;-89
2022/03/17 10:29:25;;;;;;;13.60;3.35;;;;;;;14.76;68.28;102014.75;5036982;28;20047;-86
2022/03/17 10:31:58;;;;;;;13.25;2.92;;;;;;;14.52;66.91;101977.72;5038118;28;20066;-84
2022/03/17 10:34:29;;;;;;;14.60;4.78;;;;;;;14.41;65.59;102008.69;5053865;28;20058;-85
2022/03/17 10:37:15;;;;;;;14.48;3.90;;;;;;;14.97;64.81;102016.91;5046377;28;20064;-83
2022/03/17 10:39:42;;;;;;;17.10;2.92;;;;;;;15.60;63.45;102017.81;5066200;28;20036;-83
2022/03/17 10:42:11;;;;;;;11.93;4.20;;;;;;;18.05;55.46;102025.31;5073618;28;20033;-81
2022/03/17 10:44:44;;;;;;;13.43;3.38;;;;;;;17.90;54.63;102019.91;5072891;28;20459;-83
2022/03/17 10:47:10;;;;;;;16.20;3.38;;;;;;;16.55;59.24;102011.19;5073211;28;20051;-83
2022/03/17 10:49:36;;;;;;;13.00;2.92;;;;;;;15.87;60.28;102030.03;5079562;28;20037;-83
2022/03/17 10:52:02;;;;;;;10.13;3.00;;;;;;;16.28;58.94;102027.03;5056102;28;20033;-81
2022/03/17 10:54:28;;;;;;;16.02;3.60;;;;;;;16.22;59.42;102031.31;5053833;28;20025;-82
2022/03/17 10:56:59;;;;;;;11.45;3.05;;;;;;;16.16;57.59;102026.59;5067624;28;20035;-82
2022/03/17 10:59:44;;;;;;;18.52;3.17;;;;;;;15.95;58.50;102043.56;5072808;28;20032;-83
2022/03/17 11:02:12;;;;;;;16.80;2.90;;;;;;;16.00;57.92;102048.44;5066835;28;20028;-84
2022/03/17 11:04:39;;;;;;;18.35;3.63;;;;;;;15.80;59.11;102059.78;5048410;28;20040;-83
2022/03/17 11:07:07;;;;;;;15.90;2.92;;;;;;;15.47;59.52;102033.81;5072647;28;20028;-82
2022/03/17 11:09:36;;;;;;;12.05;3.75;;;;;;;16.70;56.35;102058.22;5071659;28;20035;-82
2022/03/17 11:12:03;;;;;;;14.90;2.80;;;;;;;16.32;56.72;102060.91;5072408;28;20535;-84
2022/03/17 11:14:29;;;;;;;9.00;2.28;;;;;;;15.93;58.25;102064.59;5072422;28;20474;-83
2022/03/17 11:16:56;;;;;;;13.10;3.58;;;;;;;16.16;57.63;102067.31;5069780;28;20062;-83
2022/03/17 11:19:22;;;;;;;11.38;2.47;;;;;;;16.03;58.37;102037.22;5056136;28;20169;-83
2022/03/17 11:21:49;;;;;;;12.95;3.17;;;;;;;15.50;59.81;102061.41;5072394;28;20044;-83
2022/03/17 11:24:20;;;;;;;21.70;3.30;;;;;;;15.34;59.99;102089.41;5045613;28;20028;-84
2022/03/17 11:26:46;;;;;;;15.18;3.00;;;;;;;14.90;61.62;102070.94;5078846;28;20024;-82
2022/03/17 11:29:17;;;;;;;15.32;3.05;;;;;;;15.52;60.72;102080.22;5052585;28;20037;-84
2022/03/17 11:31:56;;;;;;;12.77;3.40;;;;;;;15.88;59.72;102087.84;5070623;28;20032;-85
2022/03/17 11:34:47;;;;;;;14.82;2.80;;;;;;;18.70;51.82;102083.25;5061782;28;20579;-81
2022/03/17 11:37:26;;;;;;;10.77;2.47;;;;;;;18.31;49.33;102076.44;5063321;28;20028;-82